sensor_id;sensor_type;location;lat;lon;timestamp;P1;durP1;ratioP1;P2;durP2;ratioP2
5904;SDS011;2978;42.012;24.880;2022-10-17T00:01:32;10.70;;;4.87;;
5904;SDS011;2978;42.012;24.880;2022-10-17T00:03:57;5.63;;;4.13;;
5904;SDS011;2978;42.012;24.880;2022-10-17T00:06:22;5.83;;;4.60;;
5904;SDS011;2978;42.012;24.880;2022-10-17T00:08:48;5.73;;;4.60;;
5904;SDS011;2978;42.012;24.880;2022-10-17T00:11:16;5.57;;;4.60;;
5904;SDS011;2978;42.012;24.880;2022-10-17T00:13:44;5.10;;;4.00;;
5904;SDS011;2978;42.012;24.880;2022-10-17T00:16:11;6.23;;;4.67;;
5904;SDS011;2978;42.012;24.880;2022-10-17T00:18:36;6.47;;;4.83;;
5904;SDS011;2978;42.012;24.880;2022-10-17T00:21:02;6.97;;;4.80;;
5904;SDS011;2978;42.012;24.880;2022-10-17T00:23:27;8.80;;;4.63;;
5904;SDS011;2978;42.012;24.880;2022-10-17T00:25:58;7.03;;;4.80;;
5904;SDS011;2978;42.012;24.880;2022-10-17T00:28:27;6.63;;;4.97;;
5904;SDS011;2978;42.012;24.880;2022-10-17T00:30:56;6.80;;;5.03;;
5904;SDS011;2978;42.012;24.880;2022-10-17T00:33:23;6.93;;;5.07;;
5904;SDS011;2978;42.012;24.880;2022-10-17T00:35:48;7.00;;;5.30;;
5904;SDS011;2978;42.012;24.880;2022-10-17T00:38:14;6.33;;;4.37;;
5904;SDS011;2978;42.012;24.880;2022-10-17T00:40:39;6.80;;;4.47;;
5904;SDS011;2978;42.012;24.880;2022-10-17T00:43:09;7.80;;;4.67;;
5904;SDS011;2978;42.012;24.880;2022-10-17T00:45:40;7.50;;;4.70;;
5904;SDS011;2978;42.012;24.880;2022-10-17T00:48:06;6.13;;;4.57;;
5904;SDS011;2978;42.012;24.880;2022-10-17T00:50:34;9.37;;;4.47;;
5904;SDS011;2978;42.012;24.880;2022-10-17T00:53:03;5.53;;;4.60;;
5904;SDS011;2978;42.012;24.880;2022-10-17T00:55:35;5.67;;;4.53;;
5904;SDS011;2978;42.012;24.880;2022-10-17T00:58:06;23.77;;;5.63;;
5904;SDS011;2978;42.012;24.880;2022-10-17T01:00:32;6.00;;;4.30;;
5904;SDS011;2978;42.012;24.880;2022-10-17T01:02:58;6.93;;;5.03;;
5904;SDS011;2978;42.012;24.880;2022-10-17T01:05:23;8.00;;;4.97;;
5904;SDS011;2978;42.012;24.880;2022-10-17T01:07:49;8.20;;;4.53;;
5904;SDS011;2978;42.012;24.880;2022-10-17T01:10:17;5.47;;;4.40;;
5904;SDS011;2978;42.012;24.880;2022-10-17T01:12:58;9.13;;;5.20;;
5904;SDS011;2978;42.012;24.880;2022-10-17T01:15:34;6.90;;;4.23;;
5904;SDS011;2978;42.012;24.880;2022-10-17T01:32:19;6.90;;;4.60;;
5904;SDS011;2978;42.012;24.880;2022-10-17T01:35:27;7.87;;;4.73;;
5904;SDS011;2978;42.012;24.880;2022-10-17T01:38:14;4.90;;;4.10;;
5904;SDS011;2978;42.012;24.880;2022-10-17T01:40:48;6.23;;;4.50;;
5904;SDS011;2978;42.012;24.880;2022-10-17T01:43:29;7.87;;;4.80;;
5904;SDS011;2978;42.012;24.880;2022-10-17T01:45:59;5.50;;;4.23;;
5904;SDS011;2978;42.012;24.880;2022-10-17T01:48:34;4.83;;;4.33;;
5904;SDS011;2978;42.012;24.880;2022-10-17T01:51:04;6.60;;;4.53;;
5904;SDS011;2978;42.012;24.880;2022-10-17T01:53:34;8.13;;;4.70;;
5904;SDS011;2978;42.012;24.880;2022-10-17T01:56:05;5.83;;;4.93;;
5904;SDS011;2978;42.012;24.880;2022-10-17T01:58:38;7.27;;;4.80;;
5904;SDS011;2978;42.012;24.880;2022-10-17T02:01:07;7.67;;;5.07;;
5904;SDS011;2978;42.012;24.880;2022-10-17T02:03:35;6.10;;;4.73;;
5904;SDS011;2978;42.012;24.880;2022-10-17T02:06:04;6.43;;;4.30;;
5904;SDS011;2978;42.012;24.880;2022-10-17T02:08:41;5.07;;;4.07;;
5904;SDS011;2978;42.012;24.880;2022-10-17T02:11:17;5.73;;;4.47;;
5904;SDS011;2978;42.012;24.880;2022-10-17T02:16:37;7.10;;;4.10;;
5904;SDS011;2978;42.012;24.880;2022-10-17T02:21:52;8.97;;;4.90;;
5904;SDS011;2978;42.012;24.880;2022-10-17T02:27:07;6.33;;;4.83;;
5904;SDS011;2978;42.012;24.880;2022-10-17T02:29:45;5.47;;;4.70;;
5904;SDS011;2978;42.012;24.880;2022-10-17T02:35:17;6.60;;;4.27;;
5904;SDS011;2978;42.012;24.880;2022-10-17T02:37:45;5.17;;;3.93;;
5904;SDS011;2978;42.012;24.880;2022-10-17T02:40:11;6.37;;;4.70;;
5904;SDS011;2978;42.012;24.880;2022-10-17T02:42:39;7.50;;;4.07;;
5904;SDS011;2978;42.012;24.880;2022-10-17T02:45:08;7.70;;;4.90;;
5904;SDS011;2978;42.012;24.880;2022-10-17T02:53:22;5.43;;;4.37;;
5904;SDS011;2978;42.012;24.880;2022-10-17T02:55:55;11.30;;;4.63;;
5904;SDS011;2978;42.012;24.880;2022-10-17T02:58:28;10.40;;;4.73;;
5904;SDS011;2978;42.012;24.880;2022-10-17T03:00:57;5.37;;;4.07;;
5904;SDS011;2978;42.012;24.880;2022-10-17T03:03:25;5.33;;;4.60;;
5904;SDS011;2978;42.012;24.880;2022-10-17T03:05:53;7.30;;;4.47;;
5904;SDS011;2978;42.012;24.880;2022-10-17T03:08:19;10.20;;;3.97;;
5904;SDS011;2978;42.012;24.880;2022-10-17T03:10:46;5.43;;;4.70;;
5904;SDS011;2978;42.012;24.880;2022-10-17T03:13:14;4.90;;;4.50;;
5904;SDS011;2978;42.012;24.880;2022-10-17T03:15:41;10.60;;;4.07;;
5904;SDS011;2978;42.012;24.880;2022-10-17T03:18:07;5.63;;;4.50;;
5904;SDS011;2978;42.012;24.880;2022-10-17T03:20:32;5.67;;;4.20;;
5904;SDS011;2978;42.012;24.880;2022-10-17T03:22:58;6.37;;;3.90;;
5904;SDS011;2978;42.012;24.880;2022-10-17T03:25:24;8.13;;;4.17;;
5904;SDS011;2978;42.012;24.880;2022-10-17T03:27:50;6.10;;;4.33;;
5904;SDS011;2978;42.012;24.880;2022-10-17T03:30:15;5.73;;;4.03;;
5904;SDS011;2978;42.012;24.880;2022-10-17T03:32:41;4.40;;;3.30;;
5904;SDS011;2978;42.012;24.880;2022-10-17T03:35:06;8.10;;;3.90;;
5904;SDS011;2978;42.012;24.880;2022-10-17T03:37:32;6.90;;;3.97;;
5904;SDS011;2978;42.012;24.880;2022-10-17T03:39:57;4.90;;;3.60;;
5904;SDS011;2978;42.012;24.880;2022-10-17T03:42:23;7.30;;;3.80;;
5904;SDS011;2978;42.012;24.880;2022-10-17T03:44:48;8.03;;;4.27;;
5904;SDS011;2978;42.012;24.880;2022-10-17T03:47:14;8.83;;;4.43;;
5904;SDS011;2978;42.012;24.880;2022-10-17T03:49:39;6.67;;;4.23;;
5904;SDS011;2978;42.012;24.880;2022-10-17T03:52:04;6.20;;;4.13;;
5904;SDS011;2978;42.012;24.880;2022-10-17T03:54:30;4.57;;;4.00;;
5904;SDS011;2978;42.012;24.880;2022-10-17T03:56:55;5.80;;;4.30;;
5904;SDS011;2978;42.012;24.880;2022-10-17T03:59:21;5.43;;;3.90;;
5904;SDS011;2978;42.012;24.880;2022-10-17T04:01:46;6.80;;;4.23;;
5904;SDS011;2978;42.012;24.880;2022-10-17T04:04:12;7.03;;;4.30;;
5904;SDS011;2978;42.012;24.880;2022-10-17T04:06:37;6.40;;;4.00;;
5904;SDS011;2978;42.012;24.880;2022-10-17T04:09:03;5.70;;;3.87;;
5904;SDS011;2978;42.012;24.880;2022-10-17T04:11:30;8.83;;;3.90;;
5904;SDS011;2978;42.012;24.880;2022-10-17T04:13:56;7.53;;;4.67;;
5904;SDS011;2978;42.012;24.880;2022-10-17T04:16:23;7.03;;;3.90;;
5904;SDS011;2978;42.012;24.880;2022-10-17T04:18:56;4.03;;;3.50;;
5904;SDS011;2978;42.012;24.880;2022-10-17T04:21:23;12.20;;;4.40;;
5904;SDS011;2978;42.012;24.880;2022-10-17T04:23:53;6.03;;;3.97;;
5904;SDS011;2978;42.012;24.880;2022-10-17T04:26:20;8.83;;;4.70;;
5904;SDS011;2978;42.012;24.880;2022-10-17T04:28:46;9.73;;;4.23;;
5904;SDS011;2978;42.012;24.880;2022-10-17T04:31:12;8.13;;;4.60;;
5904;SDS011;2978;42.012;24.880;2022-10-17T04:33:38;4.83;;;4.33;;
5904;SDS011;2978;42.012;24.880;2022-10-17T04:36:05;4.40;;;4.00;;
5904;SDS011;2978;42.012;24.880;2022-10-17T04:38:34;7.23;;;3.77;;
5904;SDS011;2978;42.012;24.880;2022-10-17T04:41:00;8.53;;;4.00;;
5904;SDS011;2978;42.012;24.880;2022-10-17T04:43:29;8.17;;;4.93;;
5904;SDS011;2978;42.012;24.880;2022-10-17T04:45:56;6.50;;;4.10;;
5904;SDS011;2978;42.012;24.880;2022-10-17T04:48:22;8.10;;;4.20;;
5904;SDS011;2978;42.012;24.880;2022-10-17T04:50:54;8.47;;;5.00;;
5904;SDS011;2978;42.012;24.880;2022-10-17T04:53:21;6.40;;;4.60;;
5904;SDS011;2978;42.012;24.880;2022-10-17T04:55:48;7.20;;;4.20;;
5904;SDS011;2978;42.012;24.880;2022-10-17T04:58:14;5.77;;;4.50;;
5904;SDS011;2978;42.012;24.880;2022-10-17T05:00:40;4.40;;;4.00;;
5904;SDS011;2978;42.012;24.880;2022-10-17T05:03:05;7.47;;;4.23;;
5904;SDS011;2978;42.012;24.880;2022-10-17T05:05:31;13.20;;;4.20;;
5904;SDS011;2978;42.012;24.880;2022-10-17T05:07:56;6.87;;;4.07;;
5904;SDS011;2978;42.012;24.880;2022-10-17T05:10:22;10.80;;;3.90;;
5904;SDS011;2978;42.012;24.880;2022-10-17T05:12:48;10.67;;;3.97;;
5904;SDS011;2978;42.012;24.880;2022-10-17T05:15:13;5.60;;;3.70;;
5904;SDS011;2978;42.012;24.880;2022-10-17T05:17:39;8.13;;;3.93;;
5904;SDS011;2978;42.012;24.880;2022-10-17T05:20:04;6.20;;;4.97;;
5904;SDS011;2978;42.012;24.880;2022-10-17T05:22:30;10.80;;;4.40;;
5904;SDS011;2978;42.012;24.880;2022-10-17T05:24:56;8.27;;;3.90;;
5904;SDS011;2978;42.012;24.880;2022-10-17T05:27:21;6.10;;;4.13;;
5904;SDS011;2978;42.012;24.880;2022-10-17T05:29:47;4.87;;;4.10;;
5904;SDS011;2978;42.012;24.880;2022-10-17T05:32:13;6.17;;;3.57;;
5904;SDS011;2978;42.012;24.880;2022-10-17T05:34:39;4.13;;;3.60;;
5904;SDS011;2978;42.012;24.880;2022-10-17T05:37:05;6.20;;;3.67;;
5904;SDS011;2978;42.012;24.880;2022-10-17T05:39:30;8.90;;;3.67;;
5904;SDS011;2978;42.012;24.880;2022-10-17T05:41:56;6.73;;;4.10;;
5904;SDS011;2978;42.012;24.880;2022-10-17T05:44:21;6.60;;;3.90;;
5904;SDS011;2978;42.012;24.880;2022-10-17T05:46:47;6.07;;;4.00;;
5904;SDS011;2978;42.012;24.880;2022-10-17T05:49:13;11.70;;;4.20;;
5904;SDS011;2978;42.012;24.880;2022-10-17T05:51:39;11.53;;;4.00;;
5904;SDS011;2978;42.012;24.880;2022-10-17T05:54:05;6.10;;;3.60;;
5904;SDS011;2978;42.012;24.880;2022-10-17T05:56:31;10.90;;;4.50;;
5904;SDS011;2978;42.012;24.880;2022-10-17T05:58:57;8.67;;;4.07;;
5904;SDS011;2978;42.012;24.880;2022-10-17T06:01:23;6.57;;;3.50;;
5904;SDS011;2978;42.012;24.880;2022-10-17T06:03:48;7.80;;;4.30;;
5904;SDS011;2978;42.012;24.880;2022-10-17T06:06:14;4.33;;;3.70;;
5904;SDS011;2978;42.012;24.880;2022-10-17T06:08:41;6.90;;;3.47;;
5904;SDS011;2978;42.012;24.880;2022-10-17T06:11:07;5.53;;;3.47;;
5904;SDS011;2978;42.012;24.880;2022-10-17T06:13:32;6.10;;;3.90;;
5904;SDS011;2978;42.012;24.880;2022-10-17T06:15:58;5.77;;;3.70;;
5904;SDS011;2978;42.012;24.880;2022-10-17T06:18:23;6.00;;;3.50;;
5904;SDS011;2978;42.012;24.880;2022-10-17T06:20:50;6.80;;;4.00;;
5904;SDS011;2978;42.012;24.880;2022-10-17T06:23:16;5.50;;;4.23;;
5904;SDS011;2978;42.012;24.880;2022-10-17T06:25:41;5.73;;;4.10;;
5904;SDS011;2978;42.012;24.880;2022-10-17T06:28:07;4.13;;;3.70;;
5904;SDS011;2978;42.012;24.880;2022-10-17T06:30:32;7.03;;;4.03;;
5904;SDS011;2978;42.012;24.880;2022-10-17T06:32:58;4.63;;;3.13;;
5904;SDS011;2978;42.012;24.880;2022-10-17T06:35:23;4.17;;;3.47;;
5904;SDS011;2978;42.012;24.880;2022-10-17T06:37:49;3.90;;;3.27;;
5904;SDS011;2978;42.012;24.880;2022-10-17T06:40:14;4.60;;;3.40;;
5904;SDS011;2978;42.012;24.880;2022-10-17T06:42:41;13.27;;;4.30;;
5904;SDS011;2978;42.012;24.880;2022-10-17T06:45:07;5.70;;;3.73;;
5904;SDS011;2978;42.012;24.880;2022-10-17T06:47:34;4.80;;;3.80;;
5904;SDS011;2978;42.012;24.880;2022-10-17T06:50:00;5.50;;;4.23;;
5904;SDS011;2978;42.012;24.880;2022-10-17T06:52:25;5.37;;;4.30;;
5904;SDS011;2978;42.012;24.880;2022-10-17T06:54:50;11.83;;;3.13;;
5904;SDS011;2978;42.012;24.880;2022-10-17T06:57:16;4.87;;;3.70;;
5904;SDS011;2978;42.012;24.880;2022-10-17T06:59:42;9.23;;;3.83;;
5904;SDS011;2978;42.012;24.880;2022-10-17T07:02:11;6.30;;;3.97;;
5904;SDS011;2978;42.012;24.880;2022-10-17T07:04:36;5.10;;;3.60;;
5904;SDS011;2978;42.012;24.880;2022-10-17T07:07:02;6.50;;;3.40;;
5904;SDS011;2978;42.012;24.880;2022-10-17T07:09:28;6.97;;;3.40;;
5904;SDS011;2978;42.012;24.880;2022-10-17T07:11:54;6.77;;;3.70;;
5904;SDS011;2978;42.012;24.880;2022-10-17T07:14:20;4.40;;;3.70;;
5904;SDS011;2978;42.012;24.880;2022-10-17T07:16:45;5.20;;;3.50;;
5904;SDS011;2978;42.012;24.880;2022-10-17T07:19:10;3.70;;;2.77;;
5904;SDS011;2978;42.012;24.880;2022-10-17T07:21:36;9.03;;;3.83;;
5904;SDS011;2978;42.012;24.880;2022-10-17T07:24:01;4.60;;;3.70;;
5904;SDS011;2978;42.012;24.880;2022-10-17T07:26:27;7.53;;;2.87;;
5904;SDS011;2978;42.012;24.880;2022-10-17T07:28:53;5.80;;;3.80;;
5904;SDS011;2978;42.012;24.880;2022-10-17T07:31:20;5.40;;;4.20;;
5904;SDS011;2978;42.012;24.880;2022-10-17T07:33:46;5.43;;;2.90;;
5904;SDS011;2978;42.012;24.880;2022-10-17T07:36:13;4.20;;;3.37;;
5904;SDS011;2978;42.012;24.880;2022-10-17T07:38:39;24.23;;;4.40;;
5904;SDS011;2978;42.012;24.880;2022-10-17T07:41:06;5.43;;;4.23;;
5904;SDS011;2978;42.012;24.880;2022-10-17T07:43:33;8.60;;;4.23;;
5904;SDS011;2978;42.012;24.880;2022-10-17T07:46:00;8.50;;;4.10;;
5904;SDS011;2978;42.012;24.880;2022-10-17T07:48:27;12.07;;;4.70;;
5904;SDS011;2978;42.012;24.880;2022-10-17T07:50:53;10.27;;;4.93;;
5904;SDS011;2978;42.012;24.880;2022-10-17T07:53:18;6.33;;;4.30;;
5904;SDS011;2978;42.012;24.880;2022-10-17T07:55:44;5.80;;;4.07;;
5904;SDS011;2978;42.012;24.880;2022-10-17T07:58:11;9.40;;;4.37;;
5904;SDS011;2978;42.012;24.880;2022-10-17T08:00:37;10.20;;;4.77;;
5904;SDS011;2978;42.012;24.880;2022-10-17T08:03:03;7.23;;;4.07;;
5904;SDS011;2978;42.012;24.880;2022-10-17T08:05:29;8.43;;;5.27;;
5904;SDS011;2978;42.012;24.880;2022-10-17T08:07:55;6.57;;;4.70;;
5904;SDS011;2978;42.012;24.880;2022-10-17T08:10:20;10.50;;;5.67;;
5904;SDS011;2978;42.012;24.880;2022-10-17T08:12:46;7.63;;;5.17;;
5904;SDS011;2978;42.012;24.880;2022-10-17T08:15:12;12.83;;;5.57;;
5904;SDS011;2978;42.012;24.880;2022-10-17T08:17:38;9.17;;;5.40;;
5904;SDS011;2978;42.012;24.880;2022-10-17T08:20:04;12.80;;;5.50;;
5904;SDS011;2978;42.012;24.880;2022-10-17T08:22:30;9.73;;;6.07;;
5904;SDS011;2978;42.012;24.880;2022-10-17T08:24:56;12.00;;;6.10;;
5904;SDS011;2978;42.012;24.880;2022-10-17T08:27:22;8.67;;;5.57;;
5904;SDS011;2978;42.012;24.880;2022-10-17T08:29:49;14.83;;;5.60;;
5904;SDS011;2978;42.012;24.880;2022-10-17T08:32:22;8.97;;;6.20;;
5904;SDS011;2978;42.012;24.880;2022-10-17T08:34:50;17.33;;;6.23;;
5904;SDS011;2978;42.012;24.880;2022-10-17T08:37:16;20.97;;;7.10;;
5904;SDS011;2978;42.012;24.880;2022-10-17T08:39:41;21.43;;;6.43;;
5904;SDS011;2978;42.012;24.880;2022-10-17T08:47:11;13.67;;;6.30;;
5904;SDS011;2978;42.012;24.880;2022-10-17T08:49:44;20.33;;;4.93;;
5904;SDS011;2978;42.012;24.880;2022-10-17T08:55:15;10.20;;;5.90;;
5904;SDS011;2978;42.012;24.880;2022-10-17T08:57:44;13.20;;;5.87;;
5904;SDS011;2978;42.012;24.880;2022-10-17T09:00:14;10.07;;;4.97;;
5904;SDS011;2978;42.012;24.880;2022-10-17T09:05:40;19.60;;;5.43;;
5904;SDS011;2978;42.012;24.880;2022-10-17T09:08:16;14.77;;;4.60;;
5904;SDS011;2978;42.012;24.880;2022-10-17T09:16:33;14.50;;;5.40;;
5904;SDS011;2978;42.012;24.880;2022-10-17T09:19:11;16.00;;;4.90;;
5904;SDS011;2978;42.012;24.880;2022-10-17T09:21:45;11.83;;;5.80;;
5904;SDS011;2978;42.012;24.880;2022-10-17T09:24:21;13.97;;;5.20;;
5904;SDS011;2978;42.012;24.880;2022-10-17T09:26:51;8.80;;;4.07;;
5904;SDS011;2978;42.012;24.880;2022-10-17T09:29:21;9.17;;;4.03;;
5904;SDS011;2978;42.012;24.880;2022-10-17T09:31:50;16.33;;;3.70;;
5904;SDS011;2978;42.012;24.880;2022-10-17T09:34:22;12.57;;;3.87;;
5904;SDS011;2978;42.012;24.880;2022-10-17T09:36:50;6.47;;;4.63;;
5904;SDS011;2978;42.012;24.880;2022-10-17T09:39:17;14.93;;;4.47;;
5904;SDS011;2978;42.012;24.880;2022-10-17T09:41:50;12.40;;;4.57;;
5904;SDS011;2978;42.012;24.880;2022-10-17T09:49:36;4.47;;;3.20;;
5904;SDS011;2978;42.012;24.880;2022-10-17T09:52:04;4.30;;;3.30;;
5904;SDS011;2978;42.012;24.880;2022-10-17T09:54:44;14.50;;;2.90;;
5904;SDS011;2978;42.012;24.880;2022-10-17T09:57:12;8.07;;;2.90;;
5904;SDS011;2978;42.012;24.880;2022-10-17T09:59:40;5.80;;;2.80;;
5904;SDS011;2978;42.012;24.880;2022-10-17T10:02:16;10.90;;;3.17;;
5904;SDS011;2978;42.012;24.880;2022-10-17T10:07:17;6.73;;;3.70;;
5904;SDS011;2978;42.012;24.880;2022-10-17T10:09:45;7.47;;;3.07;;
5904;SDS011;2978;42.012;24.880;2022-10-17T10:12:19;11.03;;;3.20;;
5904;SDS011;2978;42.012;24.880;2022-10-17T10:17:56;6.80;;;2.63;;
5904;SDS011;2978;42.012;24.880;2022-10-17T10:20:35;5.23;;;2.87;;
5904;SDS011;2978;42.012;24.880;2022-10-17T10:23:14;4.53;;;2.60;;
5904;SDS011;2978;42.012;24.880;2022-10-17T10:25:56;4.53;;;2.70;;
5904;SDS011;2978;42.012;24.880;2022-10-17T10:28:25;4.03;;;2.73;;
5904;SDS011;2978;42.012;24.880;2022-10-17T10:30:53;4.50;;;2.30;;
5904;SDS011;2978;42.012;24.880;2022-10-17T10:33:24;5.40;;;2.40;;
5904;SDS011;2978;42.012;24.880;2022-10-17T10:35:57;4.90;;;2.63;;
5904;SDS011;2978;42.012;24.880;2022-10-17T10:38:26;4.47;;;2.60;;
5904;SDS011;2978;42.012;24.880;2022-10-17T10:40:56;2.97;;;2.40;;
5904;SDS011;2978;42.012;24.880;2022-10-17T10:43:32;7.87;;;2.80;;
5904;SDS011;2978;42.012;24.880;2022-10-17T10:45:58;2.97;;;2.33;;
5904;SDS011;2978;42.012;24.880;2022-10-17T10:48:25;3.60;;;2.20;;
5904;SDS011;2978;42.012;24.880;2022-10-17T10:58:46;5.13;;;2.60;;
5904;SDS011;2978;42.012;24.880;2022-10-17T11:06:49;4.40;;;2.90;;
5904;SDS011;2978;42.012;24.880;2022-10-17T11:12:06;3.40;;;2.20;;
5904;SDS011;2978;42.012;24.880;2022-10-17T11:14:44;7.53;;;2.83;;
5904;SDS011;2978;42.012;24.880;2022-10-17T11:17:42;4.00;;;3.00;;
5904;SDS011;2978;42.012;24.880;2022-10-17T11:22:47;3.37;;;2.73;;
5904;SDS011;2978;42.012;24.880;2022-10-17T11:25:19;3.60;;;2.23;;
5904;SDS011;2978;42.012;24.880;2022-10-17T11:27:52;4.67;;;3.17;;
5904;SDS011;2978;42.012;24.880;2022-10-17T11:30:17;5.20;;;2.87;;
5904;SDS011;2978;42.012;24.880;2022-10-17T11:32:47;3.77;;;2.47;;
5904;SDS011;2978;42.012;24.880;2022-10-17T11:37:54;4.63;;;2.70;;
5904;SDS011;2978;42.012;24.880;2022-10-17T11:40:36;6.10;;;2.47;;
5904;SDS011;2978;42.012;24.880;2022-10-17T11:43:10;5.03;;;2.43;;
5904;SDS011;2978;42.012;24.880;2022-10-17T11:45:56;3.53;;;2.67;;
5904;SDS011;2978;42.012;24.880;2022-10-17T11:50:59;5.30;;;2.50;;
5904;SDS011;2978;42.012;24.880;2022-10-17T12:02:00;4.73;;;2.63;;
5904;SDS011;2978;42.012;24.880;2022-10-17T12:04:56;4.67;;;2.60;;
5904;SDS011;2978;42.012;24.880;2022-10-17T12:10:30;4.40;;;2.60;;
5904;SDS011;2978;42.012;24.880;2022-10-17T12:15:51;7.57;;;2.73;;
5904;SDS011;2978;42.012;24.880;2022-10-17T12:18:17;12.23;;;3.43;;
5904;SDS011;2978;42.012;24.880;2022-10-17T12:20:45;3.80;;;2.77;;
5904;SDS011;2978;42.012;24.880;2022-10-17T12:23:26;2.97;;;2.40;;
5904;SDS011;2978;42.012;24.880;2022-10-17T12:25:54;4.87;;;2.60;;
5904;SDS011;2978;42.012;24.880;2022-10-17T12:31:20;7.03;;;2.80;;
5904;SDS011;2978;42.012;24.880;2022-10-17T12:46:42;19.23;;;3.10;;
5904;SDS011;2978;42.012;24.880;2022-10-17T12:54:42;5.53;;;3.37;;
5904;SDS011;2978;42.012;24.880;2022-10-17T12:57:18;6.77;;;3.33;;
5904;SDS011;2978;42.012;24.880;2022-10-17T13:00:11;6.03;;;3.00;;
5904;SDS011;2978;42.012;24.880;2022-10-17T13:02:41;6.10;;;3.23;;
5904;SDS011;2978;42.012;24.880;2022-10-17T13:05:10;2.90;;;2.10;;
5904;SDS011;2978;42.012;24.880;2022-10-17T13:07:58;13.90;;;4.50;;
5904;SDS011;2978;42.012;24.880;2022-10-17T13:10:27;3.90;;;2.87;;
5904;SDS011;2978;42.012;24.880;2022-10-17T13:13:11;4.67;;;2.57;;
5904;SDS011;2978;42.012;24.880;2022-10-17T13:15:44;5.47;;;2.40;;
5904;SDS011;2978;42.012;24.880;2022-10-17T13:18:18;4.33;;;2.37;;
5904;SDS011;2978;42.012;24.880;2022-10-17T13:23:47;9.30;;;3.30;;
5904;SDS011;2978;42.012;24.880;2022-10-17T13:28:45;4.77;;;3.13;;
5904;SDS011;2978;42.012;24.880;2022-10-17T13:31:31;5.60;;;2.90;;
5904;SDS011;2978;42.012;24.880;2022-10-17T13:33:59;3.40;;;2.70;;
5904;SDS011;2978;42.012;24.880;2022-10-17T13:36:27;11.50;;;2.43;;
5904;SDS011;2978;42.012;24.880;2022-10-17T13:38:54;7.63;;;2.93;;
5904;SDS011;2978;42.012;24.880;2022-10-17T13:41:23;5.93;;;2.60;;
5904;SDS011;2978;42.012;24.880;2022-10-17T13:43:53;7.73;;;3.80;;
5904;SDS011;2978;42.012;24.880;2022-10-17T13:46:26;5.47;;;2.60;;
5904;SDS011;2978;42.012;24.880;2022-10-17T13:48:55;6.90;;;3.10;;
5904;SDS011;2978;42.012;24.880;2022-10-17T13:51:22;6.57;;;4.37;;
5904;SDS011;2978;42.012;24.880;2022-10-17T13:53:49;5.10;;;2.70;;
5904;SDS011;2978;42.012;24.880;2022-10-17T13:56:16;4.10;;;2.80;;
5904;SDS011;2978;42.012;24.880;2022-10-17T13:58:48;8.70;;;3.77;;
5904;SDS011;2978;42.012;24.880;2022-10-17T14:01:21;13.97;;;4.40;;
5904;SDS011;2978;42.012;24.880;2022-10-17T14:03:48;6.10;;;3.63;;
5904;SDS011;2978;42.012;24.880;2022-10-17T14:11:40;11.13;;;3.97;;
5904;SDS011;2978;42.012;24.880;2022-10-17T14:14:07;6.00;;;3.73;;
5904;SDS011;2978;42.012;24.880;2022-10-17T14:16:46;12.07;;;4.87;;
5904;SDS011;2978;42.012;24.880;2022-10-17T14:19:31;14.63;;;3.80;;
5904;SDS011;2978;42.012;24.880;2022-10-17T14:24:47;8.00;;;3.60;;
5904;SDS011;2978;42.012;24.880;2022-10-17T14:27:33;12.10;;;3.90;;
5904;SDS011;2978;42.012;24.880;2022-10-17T14:32:52;9.13;;;3.30;;
5904;SDS011;2978;42.012;24.880;2022-10-17T14:35:20;9.13;;;3.73;;
5904;SDS011;2978;42.012;24.880;2022-10-17T14:37:47;6.07;;;3.50;;
5904;SDS011;2978;42.012;24.880;2022-10-17T14:42:41;9.93;;;4.03;;
5904;SDS011;2978;42.012;24.880;2022-10-17T14:45:07;16.33;;;4.33;;
5904;SDS011;2978;42.012;24.880;2022-10-17T14:47:41;11.30;;;3.90;;
5904;SDS011;2978;42.012;24.880;2022-10-17T14:50:19;11.40;;;4.53;;
5904;SDS011;2978;42.012;24.880;2022-10-17T14:55:35;10.53;;;4.37;;
5904;SDS011;2978;42.012;24.880;2022-10-17T14:58:14;9.43;;;4.23;;
5904;SDS011;2978;42.012;24.880;2022-10-17T15:00:46;9.40;;;4.17;;
5904;SDS011;2978;42.012;24.880;2022-10-17T15:03:11;6.87;;;4.10;;
5904;SDS011;2978;42.012;24.880;2022-10-17T15:05:37;6.23;;;3.80;;
5904;SDS011;2978;42.012;24.880;2022-10-17T15:08:04;9.50;;;3.93;;
5904;SDS011;2978;42.012;24.880;2022-10-17T15:10:36;9.73;;;3.43;;
5904;SDS011;2978;42.012;24.880;2022-10-17T15:13:05;8.27;;;4.50;;
5904;SDS011;2978;42.012;24.880;2022-10-17T15:15:32;11.60;;;3.53;;
5904;SDS011;2978;42.012;24.880;2022-10-17T15:17:57;13.53;;;4.07;;
5904;SDS011;2978;42.012;24.880;2022-10-17T15:20:23;24.40;;;4.23;;
5904;SDS011;2978;42.012;24.880;2022-10-17T15:22:52;10.13;;;4.20;;
5904;SDS011;2978;42.012;24.880;2022-10-17T15:25:19;7.83;;;3.93;;
5904;SDS011;2978;42.012;24.880;2022-10-17T15:27:45;17.13;;;4.50;;
5904;SDS011;2978;42.012;24.880;2022-10-17T15:30:24;6.10;;;3.80;;
5904;SDS011;2978;42.012;24.880;2022-10-17T15:32:51;8.50;;;3.73;;
5904;SDS011;2978;42.012;24.880;2022-10-17T15:35:17;12.80;;;4.10;;
5904;SDS011;2978;42.012;24.880;2022-10-17T15:37:43;7.83;;;3.63;;
5904;SDS011;2978;42.012;24.880;2022-10-17T15:40:18;10.40;;;3.97;;
5904;SDS011;2978;42.012;24.880;2022-10-17T15:42:47;12.07;;;4.30;;
5904;SDS011;2978;42.012;24.880;2022-10-17T15:45:13;10.20;;;5.23;;
5904;SDS011;2978;42.012;24.880;2022-10-17T15:47:40;8.23;;;4.40;;
5904;SDS011;2978;42.012;24.880;2022-10-17T15:50:12;6.73;;;4.07;;
5904;SDS011;2978;42.012;24.880;2022-10-17T15:52:39;5.97;;;3.70;;
5904;SDS011;2978;42.012;24.880;2022-10-17T15:55:05;5.50;;;3.30;;
5904;SDS011;2978;42.012;24.880;2022-10-17T15:57:33;20.80;;;3.93;;
5904;SDS011;2978;42.012;24.880;2022-10-17T16:00:06;8.93;;;4.03;;
5904;SDS011;2978;42.012;24.880;2022-10-17T16:02:37;10.60;;;3.97;;
5904;SDS011;2978;42.012;24.880;2022-10-17T16:05:05;6.93;;;3.43;;
5904;SDS011;2978;42.012;24.880;2022-10-17T16:07:37;4.70;;;2.83;;
5904;SDS011;2978;42.012;24.880;2022-10-17T16:10:03;3.87;;;2.77;;
5904;SDS011;2978;42.012;24.880;2022-10-17T16:12:29;3.63;;;2.93;;
5904;SDS011;2978;42.012;24.880;2022-10-17T16:14:57;11.47;;;3.67;;
5904;SDS011;2978;42.012;24.880;2022-10-17T16:17:23;8.07;;;3.67;;
5904;SDS011;2978;42.012;24.880;2022-10-17T16:19:48;9.40;;;3.10;;
5904;SDS011;2978;42.012;24.880;2022-10-17T16:22:19;7.00;;;3.17;;
5904;SDS011;2978;42.012;24.880;2022-10-17T16:24:50;4.10;;;3.40;;
5904;SDS011;2978;42.012;24.880;2022-10-17T16:27:22;4.80;;;2.70;;
5904;SDS011;2978;42.012;24.880;2022-10-17T16:29:47;8.43;;;3.20;;
5904;SDS011;2978;42.012;24.880;2022-10-17T16:32:13;5.50;;;2.90;;
5904;SDS011;2978;42.012;24.880;2022-10-17T16:34:38;4.00;;;2.73;;
5904;SDS011;2978;42.012;24.880;2022-10-17T16:37:04;5.30;;;2.90;;
5904;SDS011;2978;42.012;24.880;2022-10-17T16:39:29;4.87;;;2.90;;
5904;SDS011;2978;42.012;24.880;2022-10-17T16:41:54;9.93;;;2.97;;
5904;SDS011;2978;42.012;24.880;2022-10-17T16:44:20;5.50;;;3.90;;
5904;SDS011;2978;42.012;24.880;2022-10-17T16:46:45;4.43;;;2.90;;
5904;SDS011;2978;42.012;24.880;2022-10-17T16:49:11;6.47;;;2.90;;
5904;SDS011;2978;42.012;24.880;2022-10-17T16:51:36;5.63;;;2.73;;
5904;SDS011;2978;42.012;24.880;2022-10-17T16:54:02;7.57;;;3.07;;
5904;SDS011;2978;42.012;24.880;2022-10-17T16:56:28;5.23;;;2.93;;
5904;SDS011;2978;42.012;24.880;2022-10-17T16:58:55;3.93;;;3.30;;
5904;SDS011;2978;42.012;24.880;2022-10-17T17:01:22;6.27;;;3.37;;
5904;SDS011;2978;42.012;24.880;2022-10-17T17:03:49;9.07;;;3.10;;
5904;SDS011;2978;42.012;24.880;2022-10-17T17:06:16;10.07;;;3.30;;
5904;SDS011;2978;42.012;24.880;2022-10-17T17:08:43;6.20;;;3.23;;
5904;SDS011;2978;42.012;24.880;2022-10-17T17:11:09;7.23;;;3.57;;
5904;SDS011;2978;42.012;24.880;2022-10-17T17:13:36;7.93;;;3.03;;
5904;SDS011;2978;42.012;24.880;2022-10-17T17:16:06;4.00;;;3.03;;
5904;SDS011;2978;42.012;24.880;2022-10-17T17:18:36;4.70;;;3.37;;
5904;SDS011;2978;42.012;24.880;2022-10-17T17:21:03;3.47;;;2.80;;
5904;SDS011;2978;42.012;24.880;2022-10-17T17:23:29;6.33;;;2.83;;
5904;SDS011;2978;42.012;24.880;2022-10-17T17:26:04;7.13;;;2.90;;
5904;SDS011;2978;42.012;24.880;2022-10-17T17:28:34;5.27;;;2.63;;